Charleston, SC

9:42 AM EDT on September 03, 2015 (GMT -0400)
West Ashley - Rotherwood Estates | | Change Station
CLOSE
Current Station
Personal Weather Station
Location: Charleston, SC
Elevation: 20 ft
Nearby Weather Stations

Elev 20 ft 32.78 °N, 80.01 °W | Updated 7 seconds ago

Partly Cloudy
Partly Cloudy
80.4 °F
Feels Like 86 °F
N
0.0
Wind Variable Wind from NNW
Gusts 0.0 mph

Today
High -- | Low -- °F
--% Chance of Precip.
Yesterday
High -- | Low -- °F
Precip. -- in
6:55 AM 7:42 PM
Waning Gibbous, 70% visible
Pressure 29.98 in
Visibility 10.0 miles
Clouds Mostly Cloudy 1800 ft
Mostly Cloudy 6500 ft
Heat Index 86 °F
Dew Point 76 °F
Humidity 85%
Rainfall 0.00 in
Snow Depth Not available.
UV 2 out of 12
Pollen 7.80 out of 12
Air Quality Not available.
Flu Activity Not available.
METAR KJZI 031335Z AUTO 00000KT 10SM BKN018 BKN065 27/24 A2998 RMK AO2 LTG DSNT SE AND S
Pressure 29.98 in
Visibility 10.0 miles
Clouds Mostly Cloudy 1800 ft
Mostly Cloudy 6500 ft
Heat Index 86 °F
Dew Point 76 °F
Humidity 85%
Rainfall 0.00 in
Snow Depth Not available.
UV 2 out of 12
Pollen 7.80 out of 12
Air Quality Not available.
Flu Activity Not available.
METAR KJZI 031335Z AUTO 00000KT 10SM BKN018 BKN065 27/24 A2998 RMK AO2 LTG DSNT SE AND S

10-Day Weather Forecast

×

Almanac

Astronomy

Sep. 03, 2015 Rise Set
Actual Time
Civil Twilight
Nautical Twilight
Astronomical Twilight
Moon
Length of Visible Light
Length of Day
Tomorrow will be .
, % of the Moon is Illuminated

Today's Extremes

State Highs State Lows

Community

WunderPhotos

Upload Photos

1,851,952 photos uploaded!

WunderBlogs® & News

Nearby

Air Quality

  Air Quality AQ Index Pollutant
Not available.

Snow Depth

Station Depth Elevation

Earthquake Activity

City Distance Mag. Time & Date
Minimum magnitude displayed is 2.5.

Coastal Water Temperatures

Place Temperature

Stations

Nearby Weather Stations

Station Location Temp. Windchill Dew Point Humidity Wind Precip. Elev Updated Type